createdAt,value
2022-09-06T00:00:18.445Z,9.50
2022-09-06T00:02:45.690Z,9.50
2022-09-06T00:05:13.563Z,9.50
2022-09-06T00:07:41.314Z,9.40
2022-09-06T00:10:09.357Z,9.20
2022-09-06T00:12:37.143Z,9.20
2022-09-06T00:15:05.781Z,9.20
2022-09-06T00:17:33.737Z,9.10
2022-09-06T00:20:00.741Z,9.10
2022-09-06T00:22:27.628Z,9.00
2022-09-06T00:24:54.515Z,8.90
2022-09-06T00:27:21.497Z,8.90
2022-09-06T00:29:48.430Z,8.80
2022-09-06T00:32:15.355Z,8.80
2022-09-06T00:34:42.361Z,8.80
2022-09-06T00:37:09.240Z,8.90
2022-09-06T00:39:36.261Z,8.80
2022-09-06T00:42:03.157Z,8.90
2022-09-06T00:44:29.995Z,8.90
2022-09-06T00:46:56.879Z,9.00
2022-09-06T00:49:31.595Z,9.00
2022-09-06T00:52:03.680Z,9.10
2022-09-06T00:54:31.232Z,9.10
2022-09-06T00:56:59.468Z,9.20
2022-09-06T00:59:33.284Z,9.20
2022-09-06T01:02:00.379Z,9.30
2022-09-06T01:04:28.592Z,9.30
2022-09-06T01:07:13.762Z,9.40
2022-09-06T01:09:55.976Z,9.40
2022-09-06T01:12:48.631Z,9.50
2022-09-06T01:15:29.671Z,9.50
2022-09-06T01:18:14.408Z,9.50
2022-09-06T01:20:57.497Z,9.60
2022-09-06T01:24:01.674Z,9.60
2022-09-06T01:26:46.399Z,9.70
2022-09-06T01:29:35.074Z,9.70
2022-09-06T01:32:17.247Z,9.80
2022-09-06T01:34:51.032Z,9.90
2022-09-06T01:37:23.179Z,10.00
2022-09-06T01:39:50.131Z,10.10
2022-09-06T01:42:25.400Z,10.20
2022-09-06T01:45:01.228Z,10.10
2022-09-06T01:47:48.389Z,10.20
2022-09-06T01:50:30.080Z,10.20
2022-09-06T01:53:36.082Z,10.30
2022-09-06T01:56:31.817Z,10.30
2022-09-06T01:59:22.679Z,10.30
2022-09-06T02:02:11.473Z,10.30
2022-09-06T02:04:49.625Z,10.30
2022-09-06T02:07:23.622Z,10.30
2022-09-06T02:09:57.641Z,10.30
2022-09-06T02:12:28.051Z,10.30
2022-09-06T02:15:11.979Z,10.30
2022-09-06T02:18:02.385Z,10.30
2022-09-06T02:20:36.809Z,10.30
2022-09-06T02:23:05.910Z,10.30
2022-09-06T02:25:49.378Z,10.30
2022-09-06T02:28:16.817Z,10.40
2022-09-06T02:30:48.985Z,10.40
2022-09-06T02:33:29.327Z,10.40
2022-09-06T02:35:57.180Z,10.40
2022-09-06T02:38:27.050Z,10.40
2022-09-06T02:40:56.031Z,10.40
2022-09-06T02:43:22.927Z,10.40
2022-09-06T02:45:49.927Z,10.50
2022-09-06T02:48:17.460Z,10.40
2022-09-06T02:50:44.300Z,10.50
2022-09-06T02:53:13.786Z,10.50
2022-09-06T02:55:41.121Z,10.40
2022-09-06T02:58:10.275Z,10.50
2022-09-06T03:00:38.023Z,10.40
2022-09-06T03:03:05.771Z,10.50
2022-09-06T03:05:33.249Z,10.50
2022-09-06T03:08:00.516Z,10.50
2022-09-06T03:10:50.019Z,10.50
2022-09-06T03:13:17.117Z,10.50
2022-09-06T03:15:44.523Z,10.50
2022-09-06T03:18:11.481Z,10.50
2022-09-06T03:20:38.344Z,10.40
2022-09-06T03:23:05.589Z,10.40
2022-09-06T03:25:32.644Z,10.30
2022-09-06T03:27:59.517Z,10.30
2022-09-06T03:30:26.372Z,10.30
2022-09-06T03:32:54.157Z,10.30
2022-09-06T03:35:21.012Z,10.20
2022-09-06T03:37:47.877Z,10.10
2022-09-06T03:40:14.779Z,10.10
2022-09-06T03:42:41.663Z,10.10
2022-09-06T03:45:09.043Z,10.10
2022-09-06T03:47:36.089Z,10.10
2022-09-06T03:50:03.047Z,10.10
2022-09-06T03:52:30.046Z,10.20
2022-09-06T03:54:56.969Z,10.20
2022-09-06T03:57:23.980Z,10.20
2022-09-06T03:59:50.852Z,10.30
2022-09-06T04:02:18.054Z,10.30
2022-09-06T04:04:44.942Z,10.40
2022-09-06T04:07:11.938Z,10.40
2022-09-06T04:09:38.914Z,10.40
2022-09-06T04:12:05.871Z,10.50
2022-09-06T04:14:32.705Z,10.50
2022-09-06T04:16:59.584Z,10.50
2022-09-06T04:19:26.472Z,10.60
2022-09-06T04:21:53.388Z,10.70
2022-09-06T04:24:20.246Z,10.70
2022-09-06T04:26:47.126Z,10.70
2022-09-06T04:29:14.060Z,10.70
2022-09-06T04:31:41.061Z,10.80
2022-09-06T04:34:08.012Z,10.80
2022-09-06T04:36:34.868Z,10.80
2022-09-06T04:39:01.727Z,10.80
2022-09-06T04:41:28.598Z,10.80
2022-09-06T04:43:55.459Z,10.90
2022-09-06T04:46:25.302Z,10.90
2022-09-06T04:48:53.765Z,11.00
2022-09-06T04:51:22.112Z,11.10
2022-09-06T04:53:49.204Z,11.10
2022-09-06T04:56:19.372Z,11.20
2022-09-06T04:58:47.357Z,11.30
2022-09-06T05:01:14.601Z,11.30
2022-09-06T05:03:41.553Z,11.40
2022-09-06T05:06:14.455Z,11.50
2022-09-06T05:08:42.227Z,11.60
2022-09-06T05:11:09.617Z,11.60
2022-09-06T05:13:37.017Z,11.70
2022-09-06T05:16:06.546Z,11.70
2022-09-06T05:18:34.154Z,11.90
2022-09-06T05:21:01.465Z,12.00
2022-09-06T05:23:28.690Z,12.10
2022-09-06T05:25:55.556Z,12.10
2022-09-06T05:28:22.422Z,12.20
2022-09-06T05:30:49.354Z,12.30
2022-09-06T05:33:22.183Z,12.40
2022-09-06T05:35:49.773Z,12.50
2022-09-06T05:38:16.933Z,12.60
2022-09-06T05:40:43.877Z,12.70
2022-09-06T05:43:10.772Z,12.90
2022-09-06T05:45:37.751Z,13.00
2022-09-06T05:48:04.700Z,13.10
2022-09-06T05:50:31.565Z,13.30
2022-09-06T05:52:58.461Z,13.50
2022-09-06T05:55:25.361Z,13.50
2022-09-06T05:57:52.328Z,13.70
2022-09-06T06:00:19.473Z,13.90
2022-09-06T06:02:50.275Z,13.90
2022-09-06T06:05:17.392Z,14.00
2022-09-06T06:07:44.278Z,14.10
2022-09-06T06:10:11.225Z,14.20
2022-09-06T06:12:38.096Z,14.40
2022-09-06T06:15:05.917Z,14.50
2022-09-06T06:17:33.005Z,14.50
2022-09-06T06:20:00.009Z,14.40
2022-09-06T06:22:26.957Z,14.50
2022-09-06T06:24:53.805Z,14.50
2022-09-06T06:27:20.728Z,14.50
2022-09-06T06:29:47.654Z,14.60
2022-09-06T06:32:14.568Z,14.70
2022-09-06T06:34:41.453Z,14.80
2022-09-06T06:37:08.370Z,15.00
2022-09-06T06:39:35.288Z,14.90
2022-09-06T06:45:50.566Z,15.10
2022-09-06T06:48:17.977Z,15.10
2022-09-06T06:50:45.030Z,15.00
2022-09-06T06:53:11.905Z,15.00
2022-09-06T06:55:39.211Z,14.90
2022-09-06T06:58:06.063Z,15.00
2022-09-06T07:00:33.043Z,15.00
2022-09-06T07:16:15.659Z,15.20
2022-09-06T07:18:43.449Z,15.30
2022-09-06T07:24:06.518Z,15.30
2022-09-06T07:26:34.982Z,15.30
2022-09-06T07:29:05.312Z,15.20
2022-09-06T07:34:20.822Z,15.10
2022-09-06T07:36:48.653Z,15.10
2022-09-06T07:39:15.670Z,15.10
2022-09-06T07:41:43.568Z,15.20
2022-09-06T07:44:10.596Z,15.30
2022-09-06T07:46:37.572Z,15.40
2022-09-06T07:49:06.117Z,15.50
2022-09-06T07:51:33.175Z,15.70
2022-09-06T07:56:48.094Z,15.70
2022-09-06T07:59:15.505Z,15.90
2022-09-06T08:01:42.676Z,16.00
2022-09-06T08:04:12.923Z,16.00
2022-09-06T08:09:35.817Z,16.10
2022-09-06T08:12:07.090Z,15.80
2022-09-06T08:14:34.986Z,15.90
2022-09-06T08:17:02.831Z,16.10
2022-09-06T08:19:29.740Z,16.30
2022-09-06T08:21:56.835Z,16.40
2022-09-06T08:24:23.871Z,16.50
2022-09-06T08:26:51.031Z,16.40
2022-09-06T08:29:19.932Z,16.50
2022-09-06T08:31:47.224Z,16.60
2022-09-06T08:34:14.510Z,16.70
2022-09-06T08:36:41.699Z,16.50
2022-09-06T08:39:10.407Z,16.50
2022-09-06T08:41:58.621Z,16.50
2022-09-06T08:51:24.707Z,16.50
2022-09-06T08:57:53.221Z,16.30
2022-09-06T09:00:20.783Z,16.50
2022-09-06T09:02:59.389Z,16.40
2022-09-06T09:05:33.158Z,16.40
2022-09-06T09:08:20.655Z,16.40
2022-09-06T09:10:50.510Z,16.30
2022-09-06T09:13:44.591Z,16.20
2022-09-06T09:16:11.959Z,16.20
2022-09-06T09:18:42.540Z,16.40
2022-09-06T09:21:10.642Z,16.50
2022-09-06T09:23:37.576Z,16.40
2022-09-06T09:26:12.415Z,16.40
2022-09-06T09:28:39.295Z,16.50
2022-09-06T09:31:07.347Z,16.40
2022-09-06T09:33:38.759Z,16.40
2022-09-06T09:36:13.176Z,16.50
2022-09-06T09:38:45.915Z,16.60
2022-09-06T09:45:00.461Z,16.30
2022-09-06T09:47:32.903Z,16.60
2022-09-06T09:50:00.517Z,16.30
2022-09-06T09:52:32.036Z,16.60
2022-09-06T09:55:10.971Z,16.50
2022-09-06T09:57:47.447Z,16.50
2022-09-06T10:00:14.755Z,16.50
2022-09-06T10:02:42.628Z,16.60
2022-09-06T10:05:13.011Z,16.30
2022-09-06T10:07:50.346Z,16.30
2022-09-06T10:10:42.622Z,16.50
2022-09-06T10:13:30.828Z,16.70
2022-09-06T10:15:59.905Z,16.70
2022-09-06T10:18:32.707Z,16.80
2022-09-06T10:21:29.506Z,16.70
2022-09-06T10:24:31.528Z,16.80
2022-09-06T10:27:03.010Z,16.80
2022-09-06T10:29:41.077Z,16.70
2022-09-06T10:32:35.026Z,16.70
2022-09-06T10:35:11.109Z,16.70
2022-09-06T10:37:50.006Z,16.60
2022-09-06T10:40:43.319Z,16.70
2022-09-06T10:43:18.756Z,16.80
2022-09-06T10:45:58.231Z,16.90
2022-09-06T10:48:32.435Z,16.90
2022-09-06T10:51:20.785Z,16.90
2022-09-06T10:54:10.702Z,16.90
2022-09-06T10:56:45.476Z,16.80
2022-09-06T10:59:37.975Z,16.80
2022-09-06T11:02:41.060Z,17.00
2022-09-06T11:10:56.067Z,16.90
2022-09-06T11:13:27.045Z,16.90
2022-09-06T11:16:19.658Z,16.80
2022-09-06T11:19:07.199Z,16.80
2022-09-06T11:21:51.146Z,17.00
2022-09-06T11:24:39.216Z,17.10
2022-09-06T11:27:31.757Z,17.10
2022-09-06T11:30:01.098Z,17.00
2022-09-06T11:32:33.397Z,17.20
2022-09-06T11:35:04.708Z,17.30
2022-09-06T11:37:39.707Z,17.40
2022-09-06T11:40:30.244Z,17.30
2022-09-06T11:42:59.471Z,17.40
2022-09-06T11:45:41.130Z,17.50
2022-09-06T11:48:35.240Z,17.30
2022-09-06T11:51:11.047Z,17.50
2022-09-06T11:53:49.886Z,17.60
2022-09-06T11:56:39.767Z,17.40
2022-09-06T11:59:31.879Z,17.40
2022-09-06T12:02:07.763Z,17.50
2022-09-06T12:05:04.744Z,17.40
2022-09-06T12:07:33.909Z,17.30
2022-09-06T12:10:31.496Z,17.40
2022-09-06T12:12:59.159Z,17.30
2022-09-06T12:15:29.380Z,17.10
2022-09-06T12:17:57.691Z,17.20
2022-09-06T12:20:49.428Z,17.10
2022-09-06T12:23:36.522Z,17.30
2022-09-06T12:26:04.745Z,17.40
2022-09-06T12:28:42.170Z,17.10
2022-09-06T12:31:32.922Z,17.00
2022-09-06T12:34:26.021Z,17.10
2022-09-06T12:36:59.197Z,17.10
2022-09-06T12:39:26.335Z,17.00
2022-09-06T12:41:59.748Z,16.80
2022-09-06T12:44:33.498Z,16.90
2022-09-06T12:47:06.085Z,17.00
2022-09-06T12:49:33.569Z,17.20
2022-09-06T12:52:09.549Z,17.10
2022-09-06T12:54:44.010Z,17.20
2022-09-06T12:57:26.101Z,17.00
2022-09-06T12:59:57.666Z,17.00
2022-09-06T13:02:33.918Z,16.90
2022-09-06T13:05:05.638Z,16.90
2022-09-06T13:07:35.533Z,17.00
2022-09-06T13:10:03.396Z,16.90
2022-09-06T13:12:36.696Z,17.00
2022-09-06T13:15:25.296Z,16.80
2022-09-06T13:17:53.977Z,16.90
2022-09-06T13:20:30.408Z,16.90
2022-09-06T13:23:13.109Z,16.90
2022-09-06T13:25:52.191Z,16.80
2022-09-06T13:28:33.580Z,16.70
2022-09-06T13:31:18.282Z,16.80
2022-09-06T13:33:46.565Z,16.80
2022-09-06T13:36:26.714Z,16.90
2022-09-06T13:38:54.658Z,17.10
2022-09-06T13:41:27.630Z,17.10
2022-09-06T13:44:19.867Z,17.00
2022-09-06T13:46:47.079Z,17.00
2022-09-06T13:49:14.609Z,17.00
2022-09-06T13:51:43.419Z,17.00
2022-09-06T13:54:13.050Z,17.00
2022-09-06T13:56:41.765Z,17.00
2022-09-06T13:59:12.319Z,17.00
2022-09-06T14:01:41.506Z,16.90
2022-09-06T14:04:13.014Z,16.80
2022-09-06T14:06:40.562Z,16.80
2022-09-06T14:09:08.570Z,16.80
2022-09-06T14:11:36.177Z,16.80
2022-09-06T14:14:03.799Z,16.80
2022-09-06T14:16:30.858Z,16.80
2022-09-06T14:18:58.077Z,16.90
2022-09-06T14:21:25.021Z,16.80
2022-09-06T14:23:53.033Z,16.80
2022-09-06T14:26:23.535Z,17.10
2022-09-06T14:28:51.064Z,17.50
2022-09-06T14:31:20.795Z,17.80
2022-09-06T14:37:35.027Z,19.20
2022-09-06T14:40:02.091Z,19.50
2022-09-06T14:42:29.104Z,19.70
2022-09-06T14:44:55.982Z,20.00
2022-09-06T14:47:22.916Z,20.00
2022-09-06T14:49:49.804Z,20.00
2022-09-06T14:52:16.674Z,20.00
2022-09-06T14:54:43.576Z,19.70
2022-09-06T14:57:10.434Z,19.70
2022-09-06T14:59:37.321Z,19.40
2022-09-06T15:02:04.368Z,19.40
2022-09-06T15:04:31.255Z,19.60
2022-09-06T15:06:58.948Z,19.30
2022-09-06T15:09:25.930Z,19.20
2022-09-06T15:11:53.391Z,19.00
2022-09-06T15:14:22.673Z,18.80
2022-09-06T15:16:55.937Z,18.80
2022-09-06T15:19:24.862Z,18.90
2022-09-06T15:21:51.852Z,18.90
2022-09-06T15:24:18.912Z,18.70
2022-09-06T15:26:46.056Z,18.90
2022-09-06T15:29:13.873Z,18.60
2022-09-06T15:31:42.603Z,18.60
2022-09-06T15:34:10.556Z,18.90
2022-09-06T15:36:37.851Z,18.80
2022-09-06T15:39:06.152Z,18.90
2022-09-06T15:41:36.246Z,18.60
2022-09-06T15:44:11.847Z,18.60
2022-09-06T15:46:43.951Z,18.90
2022-09-06T15:49:16.734Z,19.00
2022-09-06T15:51:44.158Z,18.40
2022-09-06T15:54:14.126Z,18.30
2022-09-06T15:56:41.735Z,18.50
2022-09-06T15:59:08.993Z,18.60
2022-09-06T16:01:36.867Z,19.20
2022-09-06T16:04:06.129Z,19.80
2022-09-06T16:06:42.708Z,20.50
2022-09-06T16:09:14.535Z,21.00
2022-09-06T16:11:42.121Z,20.20
2022-09-06T16:14:12.542Z,20.20
2022-09-06T16:16:40.516Z,19.50
2022-09-06T16:19:08.357Z,18.90
2022-09-06T16:21:37.907Z,18.80
2022-09-06T16:24:08.074Z,18.40
2022-09-06T16:26:38.097Z,17.70
2022-09-06T16:29:06.951Z,17.10
2022-09-06T16:31:39.106Z,16.50
2022-09-06T16:34:07.921Z,16.00
2022-09-06T16:36:34.956Z,15.70
2022-09-06T16:39:01.957Z,15.40
2022-09-06T16:41:34.411Z,15.20
2022-09-06T16:44:01.417Z,15.10
2022-09-06T16:46:31.278Z,14.90
2022-09-06T16:49:01.608Z,14.90
2022-09-06T16:51:29.764Z,14.90
2022-09-06T16:53:57.680Z,14.80
2022-09-06T16:56:31.900Z,14.70
2022-09-06T16:59:00.496Z,14.60
2022-09-06T17:01:29.831Z,14.50
2022-09-06T17:03:57.688Z,14.30
2022-09-06T17:06:25.811Z,14.20
2022-09-06T17:08:52.692Z,14.20
2022-09-06T17:11:22.383Z,14.00
2022-09-06T17:13:51.634Z,13.90
2022-09-06T17:16:37.789Z,13.90
2022-09-06T17:19:06.232Z,13.90
2022-09-06T17:21:33.518Z,13.70
2022-09-06T17:24:03.108Z,13.90
2022-09-06T17:26:30.999Z,13.90
2022-09-06T17:28:58.110Z,13.80
2022-09-06T17:31:26.204Z,13.60
2022-09-06T17:33:53.563Z,13.40
2022-09-06T17:36:23.843Z,13.20
2022-09-06T17:38:53.572Z,13.10
2022-09-06T17:41:24.437Z,12.90
2022-09-06T17:43:54.137Z,12.80
2022-09-06T17:46:28.662Z,12.70
2022-09-06T17:48:56.475Z,12.60
2022-09-06T17:51:24.390Z,12.50
2022-09-06T17:53:52.421Z,12.40
2022-09-06T17:56:20.602Z,12.30
2022-09-06T17:58:59.502Z,12.20
2022-09-06T18:01:31.389Z,12.20
2022-09-06T18:03:59.390Z,12.10
2022-09-06T18:06:29.120Z,12.10
2022-09-06T18:08:58.371Z,12.00
2022-09-06T18:11:31.995Z,11.80
2022-09-06T18:14:07.931Z,11.80
2022-09-06T18:16:36.808Z,11.60
2022-09-06T18:19:05.589Z,11.60
2022-09-06T18:21:35.589Z,11.50
2022-09-06T18:24:03.096Z,11.40
2022-09-06T18:26:30.000Z,11.40
2022-09-06T18:28:57.264Z,11.20
2022-09-06T18:31:26.127Z,11.20
2022-09-06T18:33:55.826Z,11.10
2022-09-06T18:36:22.892Z,11.00
2022-09-06T18:38:49.956Z,10.90
2022-09-06T18:41:35.894Z,10.90
2022-09-06T18:44:04.886Z,10.80
2022-09-06T18:46:34.113Z,10.80
2022-09-06T18:49:01.146Z,10.80
2022-09-06T18:51:28.642Z,10.70
2022-09-06T18:53:57.564Z,10.70
2022-09-06T18:56:25.359Z,10.60
2022-09-06T18:58:59.799Z,10.60
2022-09-06T19:01:29.245Z,10.60
2022-09-06T19:03:57.758Z,10.50
2022-09-06T19:06:26.221Z,10.30
2022-09-06T19:08:53.992Z,10.30
2022-09-06T19:11:22.267Z,10.30
2022-09-06T19:13:54.613Z,10.20
2022-09-06T19:16:23.354Z,10.10
2022-09-06T19:18:51.023Z,10.10
2022-09-06T19:21:22.329Z,10.10
2022-09-06T19:23:57.439Z,10.00
2022-09-06T19:26:25.921Z,10.10
2022-09-06T19:28:58.775Z,10.10
2022-09-06T19:31:28.489Z,10.00
2022-09-06T19:33:56.543Z,9.90
2022-09-06T19:36:25.085Z,9.80
2022-09-06T19:39:06.937Z,9.80
2022-09-06T19:41:38.808Z,9.70
2022-09-06T19:44:08.711Z,9.60
2022-09-06T19:46:36.721Z,9.60
2022-09-06T19:49:05.221Z,9.50
2022-09-06T19:51:33.214Z,9.50
2022-09-06T19:54:00.493Z,9.40
2022-09-06T19:56:31.719Z,9.30
2022-09-06T19:59:01.141Z,9.20
2022-09-06T20:01:31.181Z,9.20
2022-09-06T20:03:58.910Z,9.10
2022-09-06T20:06:26.976Z,9.10
2022-09-06T20:08:56.205Z,9.00
2022-09-06T20:11:26.508Z,9.00
2022-09-06T20:13:53.802Z,8.90
2022-09-06T20:20:02.779Z,8.90
2022-09-06T20:26:18.127Z,8.80
2022-09-06T20:28:45.825Z,8.70
2022-09-06T20:31:18.619Z,8.80
2022-09-06T20:33:49.475Z,8.70
2022-09-06T20:36:18.353Z,8.70
2022-09-06T20:38:47.143Z,8.70
2022-09-06T20:41:15.239Z,8.60
2022-09-06T20:43:42.686Z,8.60
2022-09-06T20:46:14.148Z,8.70
2022-09-06T20:48:44.759Z,8.60
2022-09-06T20:51:19.129Z,8.60
2022-09-06T20:53:48.602Z,8.50
2022-09-06T20:56:19.261Z,8.50
2022-09-06T20:58:51.613Z,8.40
2022-09-06T21:01:22.797Z,8.40
2022-09-06T21:03:52.359Z,8.40
2022-09-06T21:06:20.610Z,8.40
2022-09-06T21:08:48.116Z,8.40
2022-09-06T21:11:15.619Z,8.30
2022-09-06T21:13:42.735Z,8.40
2022-09-06T21:16:09.971Z,8.30
2022-09-06T21:18:36.918Z,8.30
2022-09-06T21:21:06.304Z,8.30
2022-09-06T21:23:35.994Z,8.30
2022-09-06T21:26:08.149Z,8.20
2022-09-06T21:28:37.554Z,8.20
2022-09-06T21:31:08.269Z,8.10
2022-09-06T21:33:37.015Z,8.20
2022-09-06T21:36:07.094Z,8.10
2022-09-06T21:38:35.684Z,8.10
2022-09-06T21:41:03.283Z,8.10
2022-09-06T21:43:30.686Z,8.10
2022-09-06T21:46:04.524Z,8.00
2022-09-06T21:48:31.624Z,8.00
2022-09-06T21:50:58.648Z,8.00
2022-09-06T21:53:27.230Z,8.10
2022-09-06T21:56:00.398Z,8.10
2022-09-06T21:58:27.864Z,8.10
2022-09-06T22:00:59.361Z,8.10
2022-09-06T22:03:28.116Z,8.10
2022-09-06T22:05:56.042Z,8.10
2022-09-06T22:08:24.187Z,8.00
2022-09-06T22:10:51.715Z,8.00
2022-09-06T22:13:20.150Z,8.10
2022-09-06T22:15:47.553Z,8.10
2022-09-06T22:18:14.656Z,8.10
2022-09-06T22:20:41.883Z,8.10
2022-09-06T22:23:10.064Z,8.10
2022-09-06T22:25:37.165Z,8.10
2022-09-06T22:28:04.189Z,8.20
2022-09-06T22:30:31.214Z,8.10
2022-09-06T22:32:58.297Z,8.20
2022-09-06T22:35:25.296Z,8.20
2022-09-06T22:37:52.321Z,8.20
2022-09-06T22:40:19.468Z,8.20
2022-09-06T22:42:46.506Z,8.10
2022-09-06T22:45:13.562Z,8.10
2022-09-06T22:47:40.620Z,8.10
2022-09-06T22:50:08.644Z,8.10
2022-09-06T22:52:35.652Z,8.10
2022-09-06T22:55:02.905Z,8.10
2022-09-06T22:57:29.916Z,8.10
2022-09-06T22:59:56.973Z,8.00
2022-09-06T23:02:24.044Z,8.00
2022-09-06T23:04:51.591Z,8.00
2022-09-06T23:07:18.738Z,8.00
2022-09-06T23:09:45.755Z,8.00
2022-09-06T23:12:12.852Z,8.00
2022-09-06T23:14:39.892Z,7.80
2022-09-06T23:17:07.208Z,7.80
2022-09-06T23:19:34.198Z,7.70
2022-09-06T23:22:01.222Z,7.60
2022-09-06T23:24:28.494Z,7.60
2022-09-06T23:26:55.875Z,7.50
2022-09-06T23:29:23.081Z,7.50
2022-09-06T23:31:50.248Z,7.40
2022-09-06T23:34:17.303Z,7.40
2022-09-06T23:36:44.383Z,7.40
2022-09-06T23:39:11.730Z,7.30
2022-09-06T23:41:38.778Z,7.30
2022-09-06T23:44:05.951Z,7.20
2022-09-06T23:46:33.206Z,7.20
2022-09-06T23:49:00.308Z,7.20
2022-09-06T23:51:27.428Z,7.20
2022-09-06T23:53:54.523Z,7.20
2022-09-06T23:56:22.502Z,7.20
2022-09-06T23:58:49.563Z,7.20
